Time;durP1;ratioP1;P1;durP2;ratioP2;P2;SDS_P1;SDS_P2;PMS_P1;PMS_P2;Temp;Humidity;BMP_temperature;BMP_pressure;BME280_temperature;BME280_humidity;BME280_pressure;Samples;Min_cycle;Max_cycle;Signal;HPM_P1;HPM_P2
2022/07/09 00:00:21;;;;;;;8.82;5.90;;;;;;;17.57;64.22;99245.66;5031435;28;20062;-67
2022/07/09 00:02:46;;;;;;;12.50;6.90;;;;;;;17.56;63.88;99254.75;5031159;28;20049;-67
2022/07/09 00:05:13;;;;;;;9.63;6.60;;;;;;;17.51;64.03;99247.59;5035242;28;20036;-67
2022/07/09 00:07:39;;;;;;;9.95;6.20;;;;;;;17.48;63.96;99248.16;5049243;28;20045;-67
2022/07/09 00:10:05;;;;;;;9.77;6.03;;;;;;;17.46;63.93;99240.41;5031067;28;20137;-66
2022/07/09 00:12:31;;;;;;;6.55;5.85;;;;;;;17.43;64.17;99235.59;5032067;28;20383;-67
2022/07/09 00:14:57;;;;;;;9.25;5.50;;;;;;;17.44;64.56;99239.91;5037059;28;20471;-67
2022/07/09 00:17:23;;;;;;;8.07;6.15;;;;;;;17.40;65.12;99244.22;5051912;28;20479;-66
2022/07/09 00:19:48;;;;;;;6.78;5.72;;;;;;;17.36;64.97;99237.06;5049969;28;20048;-68
2022/07/09 00:22:14;;;;;;;7.93;5.25;;;;;;;17.33;64.35;99235.75;5051955;28;20640;-68
2022/07/09 00:24:40;;;;;;;10.45;5.80;;;;;;;17.32;64.47;99242.16;5044285;28;20067;-68
2022/07/09 00:27:06;;;;;;;9.73;6.10;;;;;;;17.31;64.51;99231.75;5032755;28;20049;-66
2022/07/09 00:29:31;;;;;;;10.85;5.65;;;;;;;17.24;65.09;99235.56;5047458;28;20064;-68
2022/07/09 00:31:57;;;;;;;7.97;5.50;;;;;;;17.25;64.90;99231.00;5051421;28;20044;-66
2022/07/09 00:34:22;;;;;;;7.47;5.50;;;;;;;17.21;64.84;99236.16;5031403;28;20124;-67
2022/07/09 00:36:48;;;;;;;9.48;5.25;;;;;;;17.18;64.65;99233.25;5032927;28;20053;-66
2022/07/09 00:39:14;;;;;;;7.43;5.78;;;;;;;17.18;64.81;99228.69;5030419;28;20499;-67
2022/07/09 00:41:40;;;;;;;7.53;5.43;;;;;;;17.15;65.09;99225.78;5033010;28;20091;-68
2022/07/09 00:44:05;;;;;;;7.68;5.43;;;;;;;17.14;65.24;99226.84;5030509;28;20041;-66
2022/07/09 00:46:31;;;;;;;6.68;5.20;;;;;;;17.11;64.96;99233.56;5043659;28;20662;-67
2022/07/09 00:48:57;;;;;;;6.30;5.35;;;;;;;17.10;65.14;99233.84;5030408;28;20053;-68
2022/07/09 00:51:22;;;;;;;6.00;5.20;;;;;;;17.07;65.37;99237.91;5031704;28;20045;-67
2022/07/09 00:53:48;;;;;;;9.25;5.50;;;;;;;17.05;65.59;99245.41;5050160;28;20109;-67
2022/07/09 00:56:14;;;;;;;10.48;5.80;;;;;;;17.02;65.88;99246.75;5050511;28;20036;-68
2022/07/09 00:58:42;;;;;;;9.77;6.13;;;;;;;16.98;66.36;99236.91;5044291;28;20521;-67
2022/07/09 01:01:08;;;;;;;7.00;6.05;;;;;;;17.01;66.71;99245.19;5043202;28;20045;-66
2022/07/09 01:03:33;;;;;;;8.95;6.47;;;;;;;16.99;66.99;99241.97;5031986;28;20494;-69
2022/07/09 01:05:59;;;;;;;10.05;6.22;;;;;;;17.00;66.80;99245.44;5017535;28;20414;-68
2022/07/09 01:08:25;;;;;;;7.30;6.43;;;;;;;17.00;67.08;99242.78;5039309;28;20110;-68
2022/07/09 01:10:51;;;;;;;10.32;7.10;;;;;;;17.01;67.12;99239.81;5031637;28;20111;-66
2022/07/09 01:13:17;;;;;;;9.75;6.63;;;;;;;17.01;67.09;99245.19;5030345;28;20092;-67
2022/07/09 01:15:43;;;;;;;8.50;6.82;;;;;;;17.00;67.58;99242.78;5030106;28;20617;-67
2022/07/09 01:18:12;;;;;;;9.43;7.13;;;;;;;17.01;67.15;99239.81;5047094;28;20055;-66
2022/07/09 01:20:38;;;;;;;8.40;7.50;;;;;;;17.01;67.33;99233.69;5031136;28;20055;-67
2022/07/09 01:23:04;;;;;;;7.93;7.13;;;;;;;17.06;67.33;99233.63;5034896;28;20033;-67
2022/07/09 01:25:40;;;;;;;11.07;6.95;;;;;;;17.15;67.10;99236.50;5044060;28;20429;-67
2022/07/09 01:28:08;;;;;;;8.98;7.18;;;;;;;17.27;66.96;99238.78;4999720;28;20045;-67
2022/07/09 01:30:35;;;;;;;10.05;6.72;;;;;;;17.36;66.49;99237.06;5033611;28;20050;-66
2022/07/09 01:33:01;;;;;;;8.68;7.03;;;;;;;17.47;66.28;99235.84;5050034;28;20049;-66
2022/07/09 01:35:27;;;;;;;11.52;7.43;;;;;;;17.50;66.07;99229.94;5033915;28;20033;-67
2022/07/09 01:37:53;;;;;;;8.05;7.15;;;;;;;17.58;66.13;99228.47;5031094;28;20612;-66
2022/07/09 01:40:20;;;;;;;10.43;7.15;;;;;;;17.68;65.91;99228.38;5031017;28;20049;-67
2022/07/09 01:42:47;;;;;;;10.13;6.50;;;;;;;17.80;65.56;99234.13;5029952;28;20536;-67
2022/07/09 01:45:14;;;;;;;9.25;6.93;;;;;;;17.87;65.36;99241.81;5044403;28;20445;-67
2022/07/09 01:47:40;;;;;;;8.82;7.38;;;;;;;17.99;65.06;99236.00;5053149;28;20041;-68
2022/07/09 01:50:07;;;;;;;8.15;6.55;;;;;;;18.05;64.92;99234.84;5055103;28;20087;-68
2022/07/09 01:52:32;;;;;;;8.05;7.20;;;;;;;18.18;64.49;99244.88;5053359;28;20045;-67
2022/07/09 01:54:58;;;;;;;7.85;6.72;;;;;;;18.21;64.54;99244.28;5051256;28;20494;-67
2022/07/09 01:57:24;;;;;;;14.07;7.20;;;;;;;18.26;64.53;99229.97;5044911;28;20038;-67
2022/07/09 01:59:49;;;;;;;11.27;7.30;;;;;;;18.32;64.38;99226.94;5033449;28;20049;-67
2022/07/09 02:02:15;;;;;;;10.48;6.82;;;;;;;18.41;63.98;99231.63;5041640;28;20037;-68
2022/07/09 02:04:41;;;;;;;10.27;7.38;;;;;;;18.30;64.49;99225.63;5054623;28;20056;-67
2022/07/09 02:07:07;;;;;;;10.57;6.82;;;;;;;18.17;65.09;99219.91;5048272;28;20037;-68
2022/07/09 02:09:32;;;;;;;10.02;7.32;;;;;;;18.22;65.74;99226.28;5033493;28;20154;-67
2022/07/09 02:11:58;;;;;;;8.20;6.80;;;;;;;18.29;65.87;99226.72;5034494;28;20042;-66
2022/07/09 02:14:24;;;;;;;10.25;7.57;;;;;;;18.38;66.10;99235.69;5034026;28;20179;-67
2022/07/09 02:16:50;;;;;;;12.60;7.60;;;;;;;18.55;65.66;99245.91;5053230;28;20117;-68
2022/07/09 02:19:15;;;;;;;10.73;7.03;;;;;;;18.98;63.97;99243.84;5036243;28;20435;-66
2022/07/09 02:21:41;;;;;;;15.25;7.80;;;;;;;19.40;63.08;99247.34;5054218;28;20045;-66
2022/07/09 02:24:07;;;;;;;8.95;7.28;;;;;;;19.73;62.49;99247.25;5054001;28;20037;-67
2022/07/09 02:26:33;;;;;;;8.10;7.30;;;;;;;19.99;61.77;99242.13;5052213;28;20049;-67
2022/07/09 02:28:59;;;;;;;8.18;6.90;;;;;;;20.01;61.67;99241.84;5052763;28;20049;-68
2022/07/09 02:31:25;;;;;;;13.05;7.20;;;;;;;20.25;60.69;99242.34;5054377;28;20513;-66
2022/07/09 02:33:51;;;;;;;7.55;6.70;;;;;;;20.46;59.64;99255.34;5052506;28;20064;-66
2022/07/09 02:36:17;;;;;;;10.32;7.40;;;;;;;20.67;59.66;99251.06;5052718;28;20037;-67
2022/07/09 02:38:43;;;;;;;8.40;7.10;;;;;;;20.80;58.19;99249.41;5050257;28;20033;-67
2022/07/09 02:41:08;;;;;;;9.95;6.97;;;;;;;20.96;57.64;99247.13;5000070;28;20087;-66
2022/07/09 02:43:34;;;;;;;9.95;7.38;;;;;;;21.01;57.58;99257.75;5032933;28;20503;-67
2022/07/09 02:46:00;;;;;;;14.60;8.10;;;;;;;20.87;57.80;99255.94;5036828;28;20048;-67
2022/07/09 02:48:26;;;;;;;14.50;7.93;;;;;;;20.80;57.61;99254.81;5052786;28;20048;-66
2022/07/09 02:50:52;;;;;;;17.48;8.25;;;;;;;20.66;58.06;99248.69;5054006;28;20047;-66
2022/07/09 02:53:19;;;;;;;11.70;7.80;;;;;;;20.41;59.27;99259.75;5043441;28;20045;-66
2022/07/09 02:55:45;;;;;;;13.23;8.18;;;;;;;20.60;59.06;99251.50;5015693;28;20128;-67
2022/07/09 02:58:11;;;;;;;12.63;8.57;;;;;;;20.70;58.72;99246.97;5034214;28;20547;-66
2022/07/09 03:00:39;;;;;;;9.50;8.38;;;;;;;20.50;59.45;99262.50;5032395;28;20574;-67
2022/07/09 03:03:05;;;;;;;12.57;8.65;;;;;;;20.57;59.73;99270.19;5035094;28;20038;-67
2022/07/09 03:05:31;;;;;;;12.32;8.45;;;;;;;21.10;58.26;99262.09;5034952;28;20037;-67
2022/07/09 03:07:57;;;;;;;9.40;8.07;;;;;;;21.48;56.77;99250.06;5053837;28;20164;-66
2022/07/09 03:10:23;;;;;;;12.68;8.57;;;;;;;21.66;56.05;99245.50;5053381;28;20076;-67
2022/07/09 03:12:48;;;;;;;11.80;8.88;;;;;;;22.11;54.71;99248.72;5053663;28;20049;-67
2022/07/09 03:15:16;;;;;;;10.50;7.35;;;;;;;22.56;53.50;99253.00;5042738;28;20041;-67
2022/07/09 03:17:42;;;;;;;14.82;11.05;;;;;;;22.92;52.91;99254.53;5050607;28;20045;-67
2022/07/09 03:20:09;;;;;;;12.55;7.57;;;;;;;23.30;51.67;99252.69;5042909;28;20442;-67
2022/07/09 03:22:35;;;;;;;12.10;8.25;;;;;;;23.68;50.86;99254.56;5033494;28;20132;-67
2022/07/09 03:25:01;;;;;;;12.85;7.82;;;;;;;24.02;50.14;99258.94;5033964;28;20120;-72
2022/07/09 03:27:30;;;;;;;17.75;8.95;;;;;;;24.23;50.09;99250.81;4999421;28;20096;-67
2022/07/09 03:29:55;;;;;;;12.40;8.50;;;;;;;24.23;49.90;99248.09;5031813;28;20231;-66
2022/07/09 03:32:21;;;;;;;12.25;8.65;;;;;;;24.04;51.02;99247.81;5036636;28;20040;-67
2022/07/09 03:34:48;;;;;;;16.83;9.93;;;;;;;23.92;51.13;99245.81;5045609;28;20042;-67
2022/07/09 03:37:13;;;;;;;17.00;9.50;;;;;;;24.00;51.08;99238.75;5033326;28;20072;-68
2022/07/09 03:39:39;;;;;;;15.65;9.55;;;;;;;24.21;50.79;99239.53;5033083;28;20524;-68
2022/07/09 03:42:06;;;;;;;17.10;9.43;;;;;;;24.26;50.72;99239.31;5033205;28;20052;-66
2022/07/09 03:44:33;;;;;;;11.93;9.73;;;;;;;24.24;50.29;99236.16;5048893;28;20461;-67
2022/07/09 03:46:59;;;;;;;15.50;9.77;;;;;;;24.34;50.40;99232.25;5046575;28;20182;-67
2022/07/09 03:49:25;;;;;;;17.48;11.02;;;;;;;24.39;49.82;99237.47;5052899;28;20033;-68
2022/07/09 03:51:51;;;;;;;15.82;10.52;;;;;;;24.40;49.93;99232.84;5051505;28;20041;-67
2022/07/09 03:54:17;;;;;;;12.50;9.70;;;;;;;24.44;49.76;99237.31;5045566;28;20036;-68
2022/07/09 03:56:42;;;;;;;15.68;10.77;;;;;;;24.38;50.07;99232.38;5014809;28;20166;-68
2022/07/09 03:59:08;;;;;;;19.08;9.60;;;;;;;24.37;50.48;99231.59;5014811;28;20499;-68
2022/07/09 04:01:34;;;;;;;17.58;11.07;;;;;;;24.20;50.74;99229.03;5048455;28;20083;-67
2022/07/09 04:03:59;;;;;;;17.90;10.43;;;;;;;24.13;51.14;99232.28;5049555;28;20120;-67
2022/07/09 04:06:25;;;;;;;17.83;11.00;;;;;;;24.16;51.24;99234.31;5042731;28;20040;-68
2022/07/09 04:08:51;;;;;;;15.32;11.05;;;;;;;24.26;50.71;99236.59;5051439;28;20101;-68
2022/07/09 04:11:17;;;;;;;16.80;12.10;;;;;;;24.22;49.96;99233.00;5052527;28;20037;-67
2022/07/09 04:13:42;;;;;;;17.05;11.95;;;;;;;24.25;49.97;99234.25;5037428;28;20120;-67
2022/07/09 04:16:08;;;;;;;17.92;11.57;;;;;;;24.43;49.47;99226.78;5014702;28;20399;-67
2022/07/09 04:18:34;;;;;;;15.52;11.10;;;;;;;24.52;49.70;99224.78;5033556;28;20115;-67
2022/07/09 04:21:00;;;;;;;14.07;10.75;;;;;;;24.74;49.13;99229.03;5031067;28;20087;-68
2022/07/09 04:23:26;;;;;;;18.23;11.13;;;;;;;24.94;49.02;99235.47;5031060;28;20045;-68
2022/07/09 04:25:52;;;;;;;18.00;11.68;;;;;;;25.21;47.78;99233.28;5044684;28;20045;-67
2022/07/09 04:28:18;;;;;;;16.25;10.90;;;;;;;25.35;47.38;99239.97;5032464;28;20033;-68
2022/07/09 04:30:45;;;;;;;16.30;12.25;;;;;;;25.49;46.75;99241.53;5032022;28;20037;-69
2022/07/09 04:33:10;;;;;;;16.38;11.77;;;;;;;25.47;46.65;99232.94;5032456;28;20499;-67
2022/07/09 04:35:36;;;;;;;14.35;11.38;;;;;;;25.47;46.37;99228.31;5045707;28;20041;-67
2022/07/09 04:38:03;;;;;;;13.45;10.50;;;;;;;25.61;45.98;99228.75;5032891;28;20041;-68
2022/07/09 04:40:28;;;;;;;19.58;10.90;;;;;;;25.86;45.71;99233.41;5031959;28;20095;-67
2022/07/09 04:42:54;;;;;;;18.33;11.57;;;;;;;25.83;45.61;99224.00;5031718;28;20041;-68
2022/07/09 04:45:20;;;;;;;15.00;10.75;;;;;;;25.77;45.58;99222.63;5032726;28;20047;-68
2022/07/09 04:47:46;;;;;;;14.20;10.68;;;;;;;25.80;45.50;99227.38;5031601;28;20048;-68
2022/07/09 04:50:11;;;;;;;18.65;10.95;;;;;;;25.82;45.48;99234.06;5045519;28;20037;-67
2022/07/09 04:52:38;;;;;;;13.05;10.20;;;;;;;25.84;45.05;99225.56;5051478;28;20124;-68
2022/07/09 04:55:04;;;;;;;15.45;9.63;;;;;;;25.88;45.47;99234.59;5049642;28;20501;-68
2022/07/09 04:57:30;;;;;;;19.35;10.77;;;;;;;25.93;45.34;99239.00;5037956;28;20069;-67
2022/07/09 05:00:00;;;;;;;15.52;11.15;;;;;;;25.96;45.49;99225.53;5031344;28;20083;-68
2022/07/09 05:02:26;;;;;;;13.93;10.07;;;;;;;26.00;45.40;99223.72;5035740;28;20102;-66
2022/07/09 05:04:51;;;;;;;22.25;11.55;;;;;;;26.17;45.32;99219.13;5047950;28;20041;-65
2022/07/09 05:07:17;;;;;;;17.73;10.88;;;;;;;26.33;44.78;99221.91;5049837;28;20056;-68
2022/07/09 05:09:43;;;;;;;18.80;9.43;;;;;;;26.46;45.10;99216.06;5051187;28;20041;-67
2022/07/09 05:12:10;;;;;;;10.23;8.60;;;;;;;26.49;42.65;99211.84;5048321;28;20044;-67
2022/07/09 05:14:39;;;;;;;20.52;10.38;;;;;;;26.41;43.51;99221.75;5049352;28;20075;-68
2022/07/09 05:17:05;;;;;;;14.65;8.00;;;;;;;26.38;42.86;99217.00;5051324;28;20045;-67
2022/07/09 05:19:32;;;;;;;10.38;6.28;;;;;;;26.32;41.52;99220.31;5035981;28;20049;-68
2022/07/09 05:21:57;;;;;;;9.73;5.78;;;;;;;26.29;41.28;99219.88;5031326;28;20037;-68
2022/07/09 05:24:23;;;;;;;11.32;5.00;;;;;;;26.18;41.75;99218.00;5038325;28;20036;-67
2022/07/09 05:26:49;;;;;;;7.32;4.53;;;;;;;25.97;40.85;99210.03;5030165;28;20037;-67
2022/07/09 05:29:14;;;;;;;8.07;4.68;;;;;;;25.78;42.41;99214.13;5041800;28;20090;-67
2022/07/09 05:31:40;;;;;;;9.57;5.05;;;;;;;25.81;42.47;99220.81;5051151;28;20049;-69
2022/07/09 05:34:07;;;;;;;6.75;4.53;;;;;;;25.80;41.89;99219.22;5033011;28;20498;-67
2022/07/09 05:36:34;;;;;;;6.70;4.50;;;;;;;25.63;43.30;99217.56;5049395;28;20044;-69
2022/07/09 05:39:00;;;;;;;7.30;4.32;;;;;;;25.43;41.83;99224.69;5013526;28;20071;-67
2022/07/09 05:41:26;;;;;;;6.55;4.00;;;;;;;25.14;42.29;99220.28;5031301;28;20077;-68
2022/07/09 05:43:52;;;;;;;4.70;3.83;;;;;;;24.87;43.30;99214.34;5031198;28;20067;-66
2022/07/09 05:46:18;;;;;;;16.45;4.25;;;;;;;24.90;43.61;99224.53;4996947;28;20090;-69
2022/07/09 05:48:44;;;;;;;6.28;3.88;;;;;;;24.83;43.10;99218.88;5031814;28;20037;-67
2022/07/09 05:51:10;;;;;;;4.13;3.60;;;;;;;24.82;43.25;99214.56;5030971;28;20092;-67
2022/07/09 05:53:35;;;;;;;5.70;4.10;;;;;;;24.90;43.27;99219.09;5029927;28;20514;-70
2022/07/09 05:56:01;;;;;;;7.05;3.97;;;;;;;24.81;44.55;99207.56;5030861;28;20081;-68
2022/07/09 05:58:26;;;;;;;5.22;4.10;;;;;;;24.62;43.47;99210.81;5032429;28;20065;-69
2022/07/09 06:01:12;;;;;;;6.15;3.42;;;;;;;24.43;44.17;99207.81;5039227;28;20087;-68
2022/07/09 06:03:43;;;;;;;6.25;3.83;;;;;;;24.18;44.43;99201.50;5017286;28;20041;-68
2022/07/09 06:06:09;;;;;;;4.65;4.10;;;;;;;24.11;45.11;99203.94;5050841;28;20044;-70
2022/07/09 06:08:35;;;;;;;5.22;3.85;;;;;;;23.99;44.91;99191.13;5045077;28;20491;-67
2022/07/09 06:11:02;;;;;;;5.38;4.80;;;;;;;23.94;45.56;99200.28;5030937;28;20603;-69
2022/07/09 06:13:28;;;;;;;8.93;4.78;;;;;;;23.96;45.10;99195.31;5029805;28;20053;-68
2022/07/09 06:15:53;;;;;;;8.32;4.45;;;;;;;23.97;45.46;99193.38;5032029;28;20514;-67
2022/07/09 06:18:19;;;;;;;6.60;3.72;;;;;;;24.01;45.91;99186.97;5030545;28;20057;-68
2022/07/09 06:20:46;;;;;;;5.60;3.90;;;;;;;23.95;45.12;99192.94;5029211;28;20037;-67
2022/07/09 06:23:12;;;;;;;5.80;3.80;;;;;;;23.84;46.18;99195.25;5029504;28;20049;-68
2022/07/09 06:25:40;;;;;;;5.90;4.05;;;;;;;23.80;46.26;99189.69;5030907;28;20046;-69
2022/07/09 06:28:06;;;;;;;7.80;4.18;;;;;;;23.85;46.31;99190.63;5030345;28;20528;-67
2022/07/09 06:30:33;;;;;;;6.97;4.38;;;;;;;23.88;46.69;99181.84;5032226;28;20041;-68
2022/07/09 06:33:00;;;;;;;10.15;3.90;;;;;;;23.91;45.59;99184.66;5035753;28;20046;-69
2022/07/09 06:35:26;;;;;;;5.25;3.83;;;;;;;23.85;45.63;99186.00;5050506;28;20041;-68
2022/07/09 06:37:52;;;;;;;6.28;3.83;;;;;;;23.72;46.22;99181.66;5054204;28;20447;-68
2022/07/09 06:40:18;;;;;;;5.65;3.80;;;;;;;23.67;46.45;99177.19;5044870;28;20095;-67
2022/07/09 06:42:43;;;;;;;3.63;3.25;;;;;;;23.68;45.92;99175.25;5034343;28;20045;-68
2022/07/09 06:45:18;;;;;;;10.55;4.63;;;;;;;23.75;46.09;99184.47;5033073;28;20124;-66
2022/07/09 06:47:43;;;;;;;9.00;4.15;;;;;;;23.89;46.52;99183.44;5033390;28;20136;-67
2022/07/09 06:50:09;;;;;;;4.25;3.95;;;;;;;23.85;45.91;99183.28;5016151;28;20068;-67
2022/07/09 06:52:35;;;;;;;7.60;4.00;;;;;;;23.91;46.31;99176.53;5032899;28;20045;-68
2022/07/09 06:55:00;;;;;;;4.95;3.58;;;;;;;23.89;45.65;99181.50;5034006;28;20554;-66
2022/07/09 06:57:26;;;;;;;4.30;3.90;;;;;;;23.93;46.13;99185.13;5032764;28;20060;-67
2022/07/09 06:59:52;;;;;;;4.32;3.83;;;;;;;23.96;45.10;99191.81;5015678;28;20041;-67
2022/07/09 07:02:18;;;;;;;6.95;4.05;;;;;;;24.06;45.32;99190.59;5034027;28;20057;-66
2022/07/09 07:04:43;;;;;;;4.68;3.90;;;;;;;24.17;44.11;99192.56;5032307;28;20068;-66
2022/07/09 07:07:09;;;;;;;5.85;3.92;;;;;;;24.39;43.85;99183.28;5033887;28;20099;-70
2022/07/09 07:09:35;;;;;;;4.47;3.50;;;;;;;24.59;43.59;99189.81;5046145;28;20052;-67
2022/07/09 07:12:00;;;;;;;5.47;3.45;;;;;;;24.64;43.06;99176.03;5053633;28;20064;-67
2022/07/09 07:14:26;;;;;;;5.15;3.55;;;;;;;24.75;42.86;99172.91;5053379;28;20115;-66
2022/07/09 07:16:53;;;;;;;4.03;3.40;;;;;;;24.83;41.58;99172.00;5051848;28;20045;-68
2022/07/09 07:19:20;;;;;;;7.32;3.72;;;;;;;24.90;42.42;99164.88;5053235;28;20087;-68
2022/07/09 07:21:47;;;;;;;4.00;3.65;;;;;;;25.05;40.68;99162.63;5052037;28;20053;-68
2022/07/09 07:24:13;;;;;;;3.63;3.33;;;;;;;25.12;41.76;99162.88;5053130;28;20159;-68
2022/07/09 07:26:39;;;;;;;4.78;3.30;;;;;;;24.97;41.55;99164.31;5051929;28;20137;-67
2022/07/09 07:29:04;;;;;;;5.03;3.13;;;;;;;24.73;41.72;99165.09;5049771;28;20036;-67
2022/07/09 07:31:31;;;;;;;4.22;3.00;;;;;;;24.59;41.50;99165.44;5051802;28;20041;-67
2022/07/09 07:33:57;;;;;;;3.80;3.00;;;;;;;24.55;41.19;99158.28;5053006;28;20044;-66
2022/07/09 07:36:23;;;;;;;3.40;3.10;;;;;;;24.60;41.47;99161.59;5053205;28;20041;-66
2022/07/09 07:38:49;;;;;;;6.53;3.15;;;;;;;24.77;40.77;99168.72;5050829;28;20094;-67
2022/07/09 07:41:16;;;;;;;3.25;2.90;;;;;;;24.84;40.89;99166.25;5051290;28;20079;-67
2022/07/09 07:43:42;;;;;;;4.45;2.92;;;;;;;24.78;40.88;99162.16;5047309;28;20407;-67
2022/07/09 07:46:07;;;;;;;6.28;3.58;;;;;;;24.69;40.90;99167.69;5036414;28;20041;-67
2022/07/09 07:48:35;;;;;;;6.00;3.60;;;;;;;24.62;41.31;99169.34;5032631;28;20482;-69
2022/07/09 07:51:02;;;;;;;4.55;3.00;;;;;;;24.61;40.82;99167.78;5032569;28;20045;-69
2022/07/09 07:53:31;;;;;;;3.92;3.40;;;;;;;24.64;41.22;99169.81;5031432;28;20050;-68
2022/07/09 07:55:56;;;;;;;5.95;3.20;;;;;;;24.63;42.37;99173.66;5031413;28;20662;-68
2022/07/09 07:58:22;;;;;;;5.10;3.42;;;;;;;24.55;42.46;99169.13;5033878;28;20116;-67
2022/07/09 08:00:48;;;;;;;4.95;3.10;;;;;;;24.47;43.26;99187.06;5031160;28;20158;-69
2022/07/09 08:03:13;;;;;;;6.63;3.40;;;;;;;24.51;43.84;99182.56;5039355;28;20103;-67
2022/07/09 08:05:39;;;;;;;7.78;3.60;;;;;;;24.50;43.56;99189.09;5042840;28;20041;-67
2022/07/09 08:08:04;;;;;;;22.67;7.03;;;;;;;24.46;43.35;99185.47;5051094;28;20048;-69
2022/07/09 08:10:30;;;;;;;21.33;6.82;;;;;;;24.43;43.69;99186.16;5039102;28;20045;-69
2022/07/09 08:12:56;;;;;;;9.25;4.05;;;;;;;24.45;43.92;99192.81;5036224;28;20110;-67
2022/07/09 08:15:22;;;;;;;8.27;3.55;;;;;;;24.47;43.67;99190.56;5032561;28;20414;-69
2022/07/09 08:17:47;;;;;;;6.47;4.30;;;;;;;24.48;43.87;99188.66;5030934;28;20526;-68
2022/07/09 08:20:13;;;;;;;5.90;3.85;;;;;;;24.53;43.90;99187.63;5032077;28;20045;-68
2022/07/09 08:22:39;;;;;;;5.38;3.70;;;;;;;24.49;43.70;99182.09;5032145;28;20049;-68
2022/07/09 08:25:05;;;;;;;8.57;3.70;;;;;;;24.37;43.68;99172.00;5032350;28;20499;-68
2022/07/09 08:27:31;;;;;;;8.13;4.57;;;;;;;24.41;43.42;99188.34;5030860;28;20050;-69
2022/07/09 08:29:57;;;;;;;5.85;4.00;;;;;;;24.35;43.82;99190.47;5030804;28;20148;-68
2022/07/09 08:32:23;;;;;;;8.52;3.83;;;;;;;24.31;44.15;99189.59;5032260;28;20049;-68
2022/07/09 08:34:48;;;;;;;10.23;4.05;;;;;;;24.17;44.87;99195.28;5014183;28;20037;-68
2022/07/09 08:37:14;;;;;;;5.32;3.92;;;;;;;24.04;46.40;99193.66;5030626;28;20419;-69
2022/07/09 08:39:39;;;;;;;7.90;5.03;;;;;;;23.95;47.70;99190.22;5031269;28;20061;-68
2022/07/09 08:42:11;;;;;;;11.93;5.60;;;;;;;23.83;48.24;99184.75;5030703;28;20107;-68
2022/07/09 08:44:41;;;;;;;7.75;5.05;;;;;;;23.70;48.50;99189.28;5031806;28;20511;-68
2022/07/09 08:47:07;;;;;;;9.88;5.95;;;;;;;23.66;48.70;99185.66;5031878;28;20049;-68
2022/07/09 08:49:33;;;;;;;8.13;5.82;;;;;;;23.56;50.46;99193.03;5013927;28;20043;-69
2022/07/09 08:52:01;;;;;;;8.40;7.38;;;;;;;23.56;50.30;99194.94;5030559;28;20065;-68
2022/07/09 08:54:27;;;;;;;8.82;6.53;;;;;;;23.62;50.33;99190.94;5031068;28;20041;-69
2022/07/09 08:56:53;;;;;;;8.10;5.47;;;;;;;23.74;50.10;99188.31;5031581;28;20078;-68
2022/07/09 08:59:19;;;;;;;9.13;5.22;;;;;;;23.86;49.46;99186.81;5031670;28;20045;-68
2022/07/09 09:01:45;;;;;;;10.35;4.85;;;;;;;23.91;49.29;99181.16;5030109;28;20083;-68
2022/07/09 09:04:10;;;;;;;7.43;4.57;;;;;;;23.84;48.41;99181.72;5013780;28;20132;-68
2022/07/09 09:06:37;;;;;;;8.30;4.95;;;;;;;23.92;48.42;99182.78;5030242;28;20053;-68
2022/07/09 09:09:03;;;;;;;6.72;4.68;;;;;;;23.85;48.38;99182.50;5031323;28;20056;-68
2022/07/09 09:11:31;;;;;;;6.90;4.40;;;;;;;23.78;48.46;99177.63;5031559;28;20136;-68
2022/07/09 09:13:57;;;;;;;9.00;5.15;;;;;;;23.68;49.45;99175.25;5031196;28;20053;-68
2022/07/09 09:16:23;;;;;;;5.57;4.80;;;;;;;23.73;49.64;99177.81;5031475;28;20045;-68
2022/07/09 09:18:51;;;;;;;11.25;5.63;;;;;;;23.66;50.23;99178.31;5031139;28;20415;-68
2022/07/09 09:21:20;;;;;;;9.43;5.65;;;;;;;23.48;51.05;99169.53;5031728;28;20125;-68
2022/07/09 09:23:52;;;;;;;6.70;5.33;;;;;;;23.55;51.08;99169.78;5030005;28;20515;-68
2022/07/09 09:26:20;;;;;;;11.75;5.72;;;;;;;23.52;51.02;99170.44;5031523;28;20049;-68
2022/07/09 09:28:57;;;;;;;6.68;5.43;;;;;;;23.50;51.04;99174.59;5031092;28;20518;-68
2022/07/09 09:31:24;;;;;;;8.52;5.13;;;;;;;23.46;50.05;99179.88;5031442;28;20037;-67
2022/07/09 09:33:54;;;;;;;8.00;5.28;;;;;;;23.39;49.84;99182.31;5030984;28;20056;-68
2022/07/09 09:36:31;;;;;;;8.60;5.50;;;;;;;23.16;50.25;99181.00;5013463;28;20498;-68
2022/07/09 09:39:20;;;;;;;8.00;5.15;;;;;;;23.11;50.65;99179.28;5029722;28;20092;-68
2022/07/09 09:41:51;;;;;;;6.93;5.22;;;;;;;23.01;51.75;99177.72;5031141;28;20084;-69
2022/07/09 09:44:18;;;;;;;7.55;5.20;;;;;;;23.00;51.74;99172.63;5031249;28;20128;-68
2022/07/09 09:46:46;;;;;;;7.40;5.07;;;;;;;22.99;52.33;99171.84;5031437;28;20060;-68
2022/07/09 09:49:14;;;;;;;9.52;5.75;;;;;;;22.96;53.99;99171.72;5031203;28;20049;-68
2022/07/09 09:51:55;;;;;;;7.22;5.82;;;;;;;22.96;54.45;99164.41;5031179;28;20056;-68
2022/07/09 09:54:21;;;;;;;7.47;5.18;;;;;;;22.95;54.29;99156.63;5013404;28;20037;-68
2022/07/09 09:56:48;;;;;;;9.50;5.28;;;;;;;22.97;54.17;99162.47;5030947;28;20514;-69
2022/07/09 09:59:15;;;;;;;9.70;5.28;;;;;;;22.98;54.31;99159.47;5029821;28;20125;-69
2022/07/09 10:01:41;;;;;;;6.88;5.40;;;;;;;22.94;55.84;99139.56;5029668;28;20061;-68
2022/07/09 10:04:11;;;;;;;6.88;5.57;;;;;;;23.03;56.12;99147.66;5031287;28;20041;-68
2022/07/09 10:06:38;;;;;;;7.10;5.95;;;;;;;23.06;56.40;99134.31;5035789;28;20461;-70
2022/07/09 10:09:05;;;;;;;7.88;5.90;;;;;;;23.09;57.36;99135.56;5037633;28;20143;-68
2022/07/09 10:11:48;;;;;;;9.77;6.05;;;;;;;23.19;56.49;99137.09;5034931;28;20049;-67
2022/07/09 10:14:35;;;;;;;7.72;6.40;;;;;;;23.20;54.52;99134.06;5033762;28;20075;-67
2022/07/09 10:17:15;;;;;;;10.00;7.45;;;;;;;23.19;55.96;99127.06;5051176;28;20048;-66
2022/07/09 10:19:58;;;;;;;10.98;8.77;;;;;;;23.18;54.20;99128.19;5054328;28;20410;-68
2022/07/09 10:22:37;;;;;;;16.25;8.55;;;;;;;23.17;54.96;99126.59;5053436;28;20044;-67
2022/07/09 10:25:04;;;;;;;10.43;7.45;;;;;;;23.32;54.91;99127.94;5053002;28;20039;-67
2022/07/09 10:27:41;;;;;;;7.82;7.03;;;;;;;23.53;54.98;99119.81;5044211;28;20050;-67
2022/07/09 10:30:07;;;;;;;7.22;6.50;;;;;;;23.75;53.50;99127.66;5042563;28;20076;-65
2022/07/09 10:32:33;;;;;;;9.00;6.82;;;;;;;23.85;53.72;99120.25;5047369;28;20037;-66
2022/07/09 10:35:05;;;;;;;19.92;15.18;;;;;;;23.76;53.51;99114.91;5053271;28;20037;-67
2022/07/09 10:37:44;;;;;;;7.53;6.40;;;;;;;23.73;54.45;99102.81;5034430;28;20124;-67
2022/07/09 10:40:16;;;;;;;10.18;6.82;;;;;;;23.80;53.96;99102.31;5032620;28;20045;-65
2022/07/09 10:42:44;;;;;;;11.13;7.25;;;;;;;23.83;52.86;99100.84;5054144;28;20502;-64
2022/07/09 10:45:27;;;;;;;7.60;6.88;;;;;;;23.85;53.04;99101.28;5052654;28;20039;-65
2022/07/09 10:47:59;;;;;;;8.85;7.65;;;;;;;23.75;54.32;99100.59;5044358;28;20048;-67
2022/07/09 10:50:27;;;;;;;10.65;7.55;;;;;;;23.67;54.71;99096.00;5053937;28;20124;-67
2022/07/09 10:52:53;;;;;;;8.75;7.82;;;;;;;23.73;54.76;99083.88;5053643;28;20045;-68
2022/07/09 10:55:21;;;;;;;10.63;8.23;;;;;;;23.73;54.59;99089.28;5052581;28;20055;-68
2022/07/09 10:57:47;;;;;;;10.07;8.30;;;;;;;23.73;55.02;99083.88;5035988;28;20545;-68
2022/07/09 11:00:17;;;;;;;9.43;7.50;;;;;;;23.82;54.12;99081.09;5052020;28;20059;-69
2022/07/09 11:03:02;;;;;;;11.10;7.70;;;;;;;23.79;53.77;99082.53;5052689;28;20041;-68
2022/07/09 11:05:31;;;;;;;10.52;7.93;;;;;;;23.68;54.14;99069.72;5034798;28;20045;-68
2022/07/09 11:08:03;;;;;;;9.02;8.07;;;;;;;23.56;54.07;99065.88;5032442;28;20068;-68
2022/07/09 11:10:30;;;;;;;8.55;7.70;;;;;;;23.63;54.82;99068.03;5033581;28;20049;-69
2022/07/09 11:12:58;;;;;;;10.18;7.80;;;;;;;23.87;54.33;99063.88;5033841;28;20041;-69
2022/07/09 11:15:26;;;;;;;7.57;6.88;;;;;;;23.87;52.49;99048.41;5034502;28;20373;-68
2022/07/09 11:18:08;;;;;;;9.60;7.10;;;;;;;23.99;52.50;99053.06;5032737;28;20208;-69
2022/07/09 11:20:40;;;;;;;8.07;7.38;;;;;;;24.00;52.89;99055.47;5033193;28;20076;-70
2022/07/09 11:23:08;;;;;;;9.02;6.90;;;;;;;23.92;52.02;99045.50;5034267;28;20503;-69
2022/07/09 11:25:33;;;;;;;8.25;6.32;;;;;;;23.72;51.46;99038.22;5031960;28;20049;-69
2022/07/09 11:28:00;;;;;;;10.80;6.30;;;;;;;23.67;51.99;99030.28;5032013;28;20123;-68